Budapest Liszt Ferenc (ex-Ferihegy)

Flight Plan at SkyVector.com

ICAO kód: LHBP
IATA kód: BUD
METAR: LHBP 201730Z 22006KT 9999 FEW044 03/01 Q1021 NOSIG
Pályák:

  • 31L/13R (3010 méter)
  • 31R/13L (3707 méter)
  • Terminál:

  • 1-es Terminál (üzleti és magángépek, teherszállító gépek)
  • 2A Terminál (A Schengen-zónából érkező repülők számára)
  • 2B Terminál (Non-Schengen országból érkező repülők számára)
  • Preferált pályairány:

  • Budapest esetében a preferált pályairány a 31-es (5 csomós hátszélkomponensig).
  • Induló futópályák:

  • 31-es irány esetén a használatos induló futópálya minden repülőgép számára a 31L.
  • 13-as irány esetén a használatos futópálya az 1-es Terminálról a 13R, a kettes terminálról a 13L.
  • Érkező futópályák:

  • 31-es irány esetén azon gépek, amelyek az egyes terminálra mennek a 31L, a kettes terminált használó gépek a 31R pályát használják.
  • 13-as irány esetén minden repülőgép a 13R pályára száll le.
  • ILS frekvenciák:

  • 31L: 111,5 MHz
  • 31R: 109,5 MHz
  • 13L: 109,15 MHz
  • 13R: 110,5 MHz
  • Initial Climb:

  • 7000 láb
  • Transition Altitude:

  • 9000 láb
  • Squawk kód kiosztás:

  • 2600-2677
  • Irányítói pozíciók:

  • LHBP_ATIS: 132,37
  • LHBP_DEL: 134,55
  • LHBP_GND: 121,90
  • LHBP_TWR: 118,10
  • LHBP_APP: 129,70
  • LHCC_CTR: 133,20
  • Debrecen

    Flight Plan at SkyVector.com

    ICAO code: LHDC
    IATA code: DEB
    METAR: LHDC 201716Z 20007KT 4000 BR OVC004 M00/M01 Q1023
    Pályák:

  • 05R/23L (2500 méter)
  • 05L/23R (2500 méter-LEZÁRVA)
  • Preferált pályairány:

  • Debrecen esetében a preferált pályairány a 05-ös (5 csomós hátszélkomponensig).
  • ILS frekvencia:

  • 05R: 110,1 MHz
  • Initial Climb:

  • FL 110
  • Transition Altitude:

  • 9000 láb
  • Squawk kód kiosztás:

  • IFR: 4260-4277
  • VFR: 7060-7077
  • Irányítói pozíciók:

  • LHDC_TWR: 125.900
  • LHCC_CTR: 133.20
  • Sármellék-Balaton

    Flight Plan at SkyVector.com

    ICAO code: LHSM
    IATA code: SOB
    METAR: LHSM 201545Z 09003KT CAVOK 07/01 Q1021 NOSIG
    Pályák:

  • 16/34 (2500 méter)
  • Preferált pályairány:

  • Sármellék esetében a preferált pályairány a 16-os (5 csomós hátszélkomponensig).
  • ILS frekvencia:

  • 16: 108,75 MHz
  • Initial Climb:

  • FL 110
  • Transition Altitude:

  • 9000 feet
  • Squawk kód kiosztás:

  • IFR: 4240-4257
  • VFR: 7040-7057
  • Irányítói pozíciók:

  • LHSM_TWR: 134.570
  • LHCC_CTR: 133.20
  • Egyéb információ:

  • B2, B3, valamint S gurulóutak csak a katonai forgalom számára használhatóak